Time;durP1;ratioP1;P1;durP2;ratioP2;P2;SDS_P1;SDS_P2;PMS_P1;PMS_P2;Temp;Humidity;BMP_temperature;BMP_pressure;BME280_temperature;BME280_humidity;BME280_pressure;Samples;Min_cycle;Max_cycle;Signal;HPM_P1;HPM_P2
2022/03/13 00:01:41;;;;;;;54.05;23.20;;;;;;;-1.12;37.45;101337.90;2108629;83;28632;-67
2022/03/13 00:04:48;;;;;;;51.85;23.73;;;;;;;-1.15;37.57;101333.90;2081686;85;31051;-68
2022/03/13 00:07:48;;;;;;;57.60;25.10;;;;;;;-1.19;37.78;101332.11;2081603;84;33008;-67
2022/03/13 00:11:07;;;;;;;60.92;23.75;;;;;;;-1.22;37.81;101336.87;2093304;85;29374;-67
2022/03/13 00:14:09;;;;;;;65.20;25.43;;;;;;;-1.24;37.90;101341.22;2100512;83;27721;-68
2022/03/13 00:17:14;;;;;;;57.27;24.40;;;;;;;-1.26;37.89;101339.43;2093076;85;28662;-67
2022/03/13 00:20:15;;;;;;;55.00;23.60;;;;;;;-1.29;38.05;101328.45;2095236;85;31028;-70
2022/03/13 00:23:20;;;;;;;61.70;24.32;;;;;;;-1.30;38.09;101332.34;2094913;84;33297;-68
2022/03/13 00:26:22;;;;;;;61.15;25.57;;;;;;;-1.32;38.07;101325.77;2118493;83;30158;-67
2022/03/13 00:29:24;;;;;;;60.63;25.12;;;;;;;-1.34;38.12;101326.17;2141744;82;27679;-69
2022/03/13 00:32:26;;;;;;;60.08;25.82;;;;;;;-1.36;38.37;101321.76;2142375;82;29633;-68
2022/03/13 00:35:28;;;;;;;61.53;25.50;;;;;;;-1.40;38.32;101320.39;2142588;82;30992;-68
2022/03/13 00:38:30;;;;;;;54.42;23.87;;;;;;;-1.41;38.40;101322.56;2142508;83;33794;-68
2022/03/13 00:41:32;;;;;;;62.78;25.80;;;;;;;-1.43;38.49;101322.09;2142961;83;29318;-68
2022/03/13 00:44:34;;;;;;;55.45;24.67;;;;;;;-1.44;38.58;101326.45;2130314;83;27693;-68
2022/03/13 00:47:36;;;;;;;59.73;24.82;;;;;;;-1.48;38.65;101311.48;2142607;83;28624;-68
2022/03/13 00:50:38;;;;;;;58.65;25.43;;;;;;;-1.50;38.68;101313.23;2142327;81;30999;-67
2022/03/13 00:53:42;;;;;;;57.73;24.72;;;;;;;-1.53;38.75;101317.98;2136563;83;33801;-68
2022/03/13 00:56:44;;;;;;;55.60;23.92;;;;;;;-1.55;38.85;101321.01;2080561;84;30138;-68
2022/03/13 00:59:46;;;;;;;52.17;24.10;;;;;;;-1.59;38.94;101320.53;2080577;85;27708;-68
2022/03/13 01:02:48;;;;;;;60.05;24.37;;;;;;;-1.64;39.02;101322.18;2081909;84;28776;-68
2022/03/13 01:05:49;;;;;;;52.90;22.00;;;;;;;-1.68;39.06;101317.72;2079139;84;31801;-70
2022/03/13 01:08:52;;;;;;;63.25;24.18;;;;;;;-1.72;39.11;101310.64;2079917;85;33003;-68
2022/03/13 01:11:54;;;;;;;53.08;23.95;;;;;;;-1.76;39.28;101316.28;2080026;85;30129;-68
2022/03/13 01:14:56;;;;;;;65.25;26.77;;;;;;;-1.79;39.39;101314.03;2080411;85;27683;-68
2022/03/13 01:17:58;;;;;;;55.92;23.38;;;;;;;-1.84;39.40;101310.89;2080066;85;28380;-70
2022/03/13 01:21:00;;;;;;;58.25;25.08;;;;;;;-1.87;39.56;101311.27;2080266;85;30991;-68
2022/03/13 01:24:09;;;;;;;62.93;25.23;;;;;;;-1.91;39.63;101306.81;2080056;85;33845;-71
2022/03/13 01:27:14;;;;;;;62.65;27.70;;;;;;;-1.95;39.78;101305.89;2099247;84;30173;-70
2022/03/13 01:30:15;;;;;;;;;;;;;;;-1.99;39.78;101307.58;2115956;84;27718;-71
2022/03/13 01:33:17;;;;;;;62.15;25.80;;;;;;;-2.02;39.82;101309.23;2138411;83;28762;-71
2022/03/13 01:36:20;;;;;;;53.30;23.10;;;;;;;-2.06;39.93;101310.94;2100638;84;31802;-72
2022/03/13 01:39:21;;;;;;;57.62;23.32;;;;;;;-2.07;40.00;101310.92;2138289;83;32985;-68
2022/03/13 01:42:25;;;;;;;49.33;22.02;;;;;;;-2.09;40.08;101295.12;2100606;84;29326;-70
2022/03/13 01:45:26;;;;;;;45.50;20.68;;;;;;;-2.11;40.30;101296.83;2133532;83;27755;-69
2022/03/13 01:48:28;;;;;;;45.58;20.92;;;;;;;-2.11;40.43;101293.33;2079232;84;29520;-70
2022/03/13 01:51:33;;;;;;;49.42;22.10;;;;;;;-2.12;40.37;101287.63;2118244;83;31042;-67
2022/03/13 01:54:34;;;;;;;48.85;20.50;;;;;;;-2.13;40.47;101288.03;2139349;83;33044;-68
2022/03/13 01:57:37;;;;;;;48.85;21.37;;;;;;;-2.15;40.75;101285.39;2122909;83;30240;-67
2022/03/13 02:00:39;;;;;;;48.73;20.32;;;;;;;-2.16;40.62;101292.81;2086327;84;27720;-69
2022/03/13 02:03:40;;;;;;;55.30;21.35;;;;;;;-2.16;40.68;101285.38;2100027;84;28710;-66
2022/03/13 02:06:42;;;;;;;43.83;20.95;;;;;;;-2.16;40.56;101286.25;2123400;83;31055;-69
2022/03/13 02:09:46;;;;;;;44.60;20.23;;;;;;;-2.15;40.67;101277.52;2121617;83;33860;-68
2022/03/13 02:12:48;;;;;;;49.50;19.43;;;;;;;-2.15;40.89;101279.27;2103666;84;29333;-68
2022/03/13 02:15:53;;;;;;;41.40;18.98;;;;;;;-2.15;40.76;101281.45;2103192;84;27699;-70
2022/03/13 02:18:56;;;;;;;44.77;19.77;;;;;;;-2.18;40.82;101281.39;2103503;84;28633;-68
2022/03/13 02:21:59;;;;;;;43.30;19.05;;;;;;;-2.19;40.86;101276.12;2103399;84;31848;-68
2022/03/13 02:25:01;;;;;;;42.80;18.98;;;;;;;-2.22;40.95;101280.00;2103371;83;32944;-69
2022/03/13 02:28:03;;;;;;;49.30;20.32;;;;;;;-2.23;41.10;101284.80;2139360;83;29321;-68
2022/03/13 02:31:12;;;;;;;42.85;18.77;;;;;;;-2.25;41.18;101287.81;2139580;83;27784;-69
2022/03/13 02:34:16;;;;;;;41.95;17.60;;;;;;;-2.26;41.32;101283.01;2138841;83;27762;-69
2022/03/13 02:37:40;;;;;;;43.35;19.50;;;;;;;-2.26;41.17;101278.16;2139053;83;31883;-68
2022/03/13 02:40:42;;;;;;;43.35;17.65;;;;;;;-2.25;41.29;101281.25;2139017;83;33019;-67
2022/03/13 02:43:43;;;;;;;48.52;19.92;;;;;;;-2.25;41.31;101281.25;2139522;83;29892;-67
2022/03/13 02:46:53;;;;;;;44.93;18.80;;;;;;;-2.26;41.37;101283.41;2139472;83;27612;-68
2022/03/13 02:49:55;;;;;;;41.02;18.65;;;;;;;-2.25;41.26;101277.31;2139296;82;28884;-72
2022/03/13 02:52:57;;;;;;;40.70;18.65;;;;;;;-2.25;41.28;101278.22;2139035;83;31244;-70
2022/03/13 02:55:59;;;;;;;43.42;17.98;;;;;;;-2.24;41.21;101268.17;2139045;83;32994;-68
2022/03/13 02:59:01;;;;;;;37.35;17.15;;;;;;;-2.25;41.37;101263.78;2139304;83;29386;-68
2022/03/13 03:02:03;;;;;;;37.38;17.80;;;;;;;-2.25;41.33;101258.94;2124413;79;27595;-61
2022/03/13 03:05:08;;;;;;;41.05;17.32;;;;;;;-2.28;41.26;101254.53;2088833;85;28847;-59
2022/03/13 03:08:11;;;;;;;37.33;17.37;;;;;;;-2.31;41.43;101257.95;2068727;86;32074;-59
2022/03/13 03:11:14;;;;;;;39.90;18.48;;;;;;;-2.32;41.51;101266.72;2053139;86;33923;-60
2022/03/13 03:14:16;;;;;;;41.53;18.05;;;;;;;-2.34;41.52;101267.52;2070936;86;29754;-60
2022/03/13 03:17:18;;;;;;;43.15;18.75;;;;;;;-2.36;41.59;101270.13;2053173;86;27723;-61
2022/03/13 03:20:22;;;;;;;40.55;17.57;;;;;;;-2.39;41.62;101268.75;2071044;86;29855;-61
2022/03/13 03:23:24;;;;;;;36.95;18.05;;;;;;;-2.40;41.62;101271.36;2052860;86;31001;-58
2022/03/13 03:26:26;;;;;;;40.90;17.12;;;;;;;-2.42;41.71;101270.00;2071199;86;33693;-63
2022/03/13 03:29:30;;;;;;;38.73;17.48;;;;;;;-2.45;41.86;101266.00;2052887;86;30127;-60
2022/03/13 03:32:32;;;;;;;43.33;19.73;;;;;;;-2.48;41.80;101268.15;2053265;86;27706;-60
2022/03/13 03:35:34;;;;;;;43.50;19.12;;;;;;;-2.50;41.93;101264.61;2070640;85;29914;-61
2022/03/13 03:38:37;;;;;;;40.00;18.70;;;;;;;-2.52;41.88;101268.06;2059975;86;31560;-61
2022/03/13 03:41:41;;;;;;;51.15;19.55;;;;;;;-2.55;42.05;101266.69;2076687;85;32807;-58
2022/03/13 03:44:42;;;;;;;47.10;20.50;;;;;;;-2.58;42.13;101274.08;2089285;85;29333;-60
2022/03/13 03:47:46;;;;;;;48.83;21.68;;;;;;;-2.60;42.24;101271.84;2089002;85;27974;-58
2022/03/13 03:50:48;;;;;;;50.78;21.10;;;;;;;-2.63;42.27;101273.96;2089517;85;29325;-61
2022/03/13 03:53:50;;;;;;;42.62;19.35;;;;;;;-2.64;42.37;101274.81;2089130;85;32378;-60
2022/03/13 03:56:52;;;;;;;39.98;18.90;;;;;;;-2.67;42.44;101272.16;2089084;85;33864;-60
2022/03/13 03:59:54;;;;;;;43.08;18.55;;;;;;;-2.69;42.56;101263.77;2061036;85;29752;-60
2022/03/13 04:02:58;;;;;;;43.78;19.35;;;;;;;-2.71;42.65;101265.48;2047765;86;27685;-61
2022/03/13 04:05:59;;;;;;;42.45;18.67;;;;;;;-2.73;42.91;101263.28;2027457;86;29916;-60
2022/03/13 04:09:02;;;;;;;45.78;19.57;;;;;;;-2.76;42.92;101270.23;2071413;86;31374;-59
2022/03/13 04:12:08;;;;;;;41.40;18.20;;;;;;;-2.78;43.13;101273.23;2064411;86;34239;-59
2022/03/13 04:15:09;;;;;;;43.08;19.92;;;;;;;-2.79;43.19;101271.47;2064944;85;29372;-59
2022/03/13 04:18:11;;;;;;;45.50;20.12;;;;;;;-2.80;43.26;101268.80;2064604;86;28403;-60
2022/03/13 04:21:12;;;;;;;43.42;18.52;;;;;;;-2.79;43.41;101277.13;2064777;85;29852;-60
2022/03/13 04:24:14;;;;;;;45.92;20.65;;;;;;;-2.79;43.60;101269.25;2064789;85;32162;-67
2022/03/13 04:27:16;;;;;;;40.30;18.27;;;;;;;-2.79;43.51;101271.47;2064491;86;34254;-60
2022/03/13 04:30:18;;;;;;;36.73;17.87;;;;;;;-2.76;43.72;101270.63;2062661;86;30492;-59
2022/03/13 04:33:21;;;;;;;44.73;18.45;;;;;;;-2.76;43.64;101271.53;2051924;86;27654;-59
2022/03/13 04:36:23;;;;;;;43.33;18.85;;;;;;;-2.72;43.66;101275.09;2031464;84;29889;-59
2022/03/13 04:39:25;;;;;;;41.60;19.85;;;;;;;-2.70;43.63;101272.49;2102921;84;32224;-59
2022/03/13 04:42:27;;;;;;;42.88;18.50;;;;;;;-2.70;43.66;101270.77;2074890;84;34267;-60
2022/03/13 04:45:29;;;;;;;37.45;16.93;;;;;;;-2.67;43.76;101268.63;2064679;85;30654;-59
2022/03/13 04:48:32;;;;;;;40.78;18.25;;;;;;;-2.65;43.86;101260.37;2064912;86;27694;-60
2022/03/13 04:51:34;;;;;;;44.60;18.20;;;;;;;-2.63;43.72;101269.16;2064944;86;28870;-60
2022/03/13 04:54:36;;;;;;;46.88;18.52;;;;;;;-2.59;43.90;101268.38;2065030;85;30936;-58
2022/03/13 04:57:38;;;;;;;43.90;18.15;;;;;;;-2.57;43.80;101263.14;2065007;85;34138;-63
2022/03/13 05:00:40;;;;;;;39.33;16.62;;;;;;;-2.55;43.71;101261.44;2062438;86;29774;-60
2022/03/13 05:03:42;;;;;;;44.98;18.75;;;;;;;-2.54;43.99;101268.02;2064712;85;27713;-58
2022/03/13 05:06:45;;;;;;;36.95;16.70;;;;;;;-2.52;43.94;101272.88;2071201;84;29356;-61
2022/03/13 05:09:46;;;;;;;36.17;15.85;;;;;;;-2.51;43.99;101271.15;2097250;84;31427;-58
2022/03/13 05:12:48;;;;;;;41.90;18.02;;;;;;;-2.50;44.05;101276.41;2088747;85;34216;-61
2022/03/13 05:15:52;;;;;;;37.35;17.50;;;;;;;-2.48;43.94;101281.70;2064907;85;29091;-59
2022/03/13 05:18:54;;;;;;;48.80;19.27;;;;;;;-2.46;44.06;101278.66;2064506;85;27711;-63
2022/03/13 05:21:56;;;;;;;49.25;20.92;;;;;;;-2.43;43.96;101287.05;2064524;85;29344;-58
2022/03/13 05:24:58;;;;;;;60.35;29.35;;;;;;;-2.42;43.99;101285.74;2064743;85;31566;-66
2022/03/13 05:28:02;;;;;;;37.45;17.57;;;;;;;-2.38;44.08;101290.62;2064073;86;34121;-59
2022/03/13 05:31:04;;;;;;;46.50;20.77;;;;;;;-2.36;44.31;101288.50;2062055;85;29339;-58
2022/03/13 05:34:07;;;;;;;53.35;22.37;;;;;;;-2.33;44.32;101295.13;2064262;85;27605;-58
2022/03/13 05:37:09;;;;;;;47.45;20.12;;;;;;;-2.30;44.38;101295.16;2064566;85;29106;-65
2022/03/13 05:40:14;;;;;;;60.48;24.52;;;;;;;-2.25;44.38;101301.84;2064795;85;31350;-58
2022/03/13 05:43:23;;;;;;;99.28;38.85;;;;;;;-2.22;44.49;101299.25;2064823;85;33797;-60
2022/03/13 05:46:22;;;;;;;79.70;30.60;;;;;;;-2.18;44.68;101298.90;2039191;85;29255;-62
2022/03/13 05:49:24;;;;;;;236.18;73.35;;;;;;;-2.15;44.46;101298.52;2043319;86;27726;-61
2022/03/13 05:52:26;;;;;;;215.57;74.97;;;;;;;-2.11;44.52;101294.20;2064765;85;29848;-59
2022/03/13 05:55:28;;;;;;;165.65;56.08;;;;;;;-2.05;44.61;101296.95;2064815;86;30927;-58
2022/03/13 05:58:30;;;;;;;165.00;57.17;;;;;;;-1.99;44.67;101300.11;2092367;84;34211;-62
2022/03/13 06:01:32;;;;;;;75.83;27.62;;;;;;;-1.93;44.65;101300.65;2087856;84;30094;-58
2022/03/13 06:04:37;;;;;;;109.42;41.37;;;;;;;-1.87;44.55;101301.64;2072854;85;27742;-59
2022/03/13 06:07:40;;;;;;;36.73;17.25;;;;;;;-1.79;44.56;101309.66;2044753;86;29066;-59
2022/03/13 06:10:42;;;;;;;41.50;19.77;;;;;;;-1.69;44.59;101306.34;2074286;85;31411;-59
2022/03/13 06:13:44;;;;;;;41.92;19.60;;;;;;;-1.59;44.49;101307.39;2080044;85;33332;-58
2022/03/13 06:16:45;;;;;;;47.50;17.57;;;;;;;-1.49;44.48;101301.86;2080632;85;29236;-59
2022/03/13 06:19:47;;;;;;;49.35;24.10;;;;;;;-1.38;44.48;101308.16;2080606;85;27707;-59
2022/03/13 06:22:49;;;;;;;43.80;21.57;;;;;;;-1.19;44.50;101312.39;2080892;85;29619;-59
2022/03/13 06:25:51;;;;;;;30.95;15.08;;;;;;;-0.96;44.54;101315.36;2080612;85;32190;-61
2022/03/13 06:28:53;;;;;;;34.50;20.25;;;;;;;-0.60;44.37;101313.19;2080765;85;32775;-59
2022/03/13 06:31:55;;;;;;;35.08;18.00;;;;;;;-0.22;44.23;101315.41;2065717;85;29612;-59
2022/03/13 06:34:57;;;;;;;36.25;17.95;;;;;;;0.25;44.05;101314.11;2027539;87;27717;-59
2022/03/13 06:37:59;;;;;;;37.17;18.67;;;;;;;0.69;43.33;101319.31;2027721;87;29862;-60
2022/03/13 06:41:01;;;;;;;37.35;18.95;;;;;;;1.15;43.28;101324.03;2037934;86;32030;-59
2022/03/13 06:44:04;;;;;;;32.05;18.07;;;;;;;1.60;42.31;101320.71;2075084;85;33928;-59
2022/03/13 06:47:07;;;;;;;34.25;17.48;;;;;;;1.96;41.72;101317.75;2074800;84;30113;-60
2022/03/13 06:50:10;;;;;;;29.80;16.87;;;;;;;2.30;41.30;101320.45;2074878;85;27810;-60
2022/03/13 06:53:12;;;;;;;34.67;17.10;;;;;;;2.64;41.31;101315.64;2098028;84;29530;-61
2022/03/13 06:56:14;;;;;;;31.35;15.32;;;;;;;2.99;40.72;101314.69;2098352;84;32288;-61
2022/03/13 06:59:16;;;;;;;33.25;16.97;;;;;;;3.39;40.14;101317.70;2101280;84;34190;-61
2022/03/13 07:02:18;;;;;;;36.95;19.62;;;;;;;3.83;39.52;101318.37;2099369;83;30662;-64
2022/03/13 07:05:19;;;;;;;35.75;18.00;;;;;;;4.26;39.39;101316.34;2090038;84;27586;-67
2022/03/13 07:08:22;;;;;;;37.60;18.60;;;;;;;4.58;38.50;101314.34;2088767;85;28473;-66
2022/03/13 07:11:24;;;;;;;27.70;14.10;;;;;;;4.95;38.71;101318.00;2088706;85;32368;-68
2022/03/13 07:14:25;;;;;;;26.57;13.95;;;;;;;5.37;37.72;101317.98;2089162;85;34103;-68
2022/03/13 07:17:30;;;;;;;29.30;15.58;;;;;;;5.79;37.03;101309.06;2089206;85;30583;-69
2022/03/13 07:20:32;;;;;;;29.52;14.87;;;;;;;6.20;36.53;101310.73;2089396;85;27666;-71
2022/03/13 07:23:34;;;;;;;27.48;14.20;;;;;;;6.53;36.11;101302.66;2089024;85;29492;-63
2022/03/13 07:26:36;;;;;;;26.68;14.33;;;;;;;6.83;35.92;101304.83;2089251;85;31838;-71
2022/03/13 07:29:38;;;;;;;22.85;12.95;;;;;;;7.18;35.14;101305.06;2089232;85;33334;-66
2022/03/13 07:32:41;;;;;;;22.30;12.90;;;;;;;7.48;33.79;101300.02;2089214;85;30196;-73
2022/03/13 07:35:44;;;;;;;25.65;14.00;;;;;;;7.66;33.06;101302.78;2089287;85;27570;-60
2022/03/13 07:38:46;;;;;;;23.95;13.70;;;;;;;7.84;33.96;101295.72;2089261;85;28642;-64
2022/03/13 07:41:51;;;;;;;25.10;13.95;;;;;;;8.02;33.74;101301.08;2087808;84;32253;-73
2022/03/13 07:44:56;;;;;;;;;;;;;;;8.34;33.70;101304.78;2091478;84;34160;-61
2022/03/13 07:47:59;;;;;;;27.55;13.80;;;;;;;8.57;33.02;101307.83;2088755;85;30533;-64
2022/03/13 07:51:04;;;;;;;27.87;14.80;;;;;;;8.76;33.05;101313.12;2089194;85;27709;-63
2022/03/13 07:54:05;;;;;;;23.80;14.50;;;;;;;8.97;33.09;101306.34;2089178;85;28639;-62
2022/03/13 07:57:07;;;;;;;20.92;13.28;;;;;;;9.11;32.08;101302.41;2092272;84;32171;-69
2022/03/13 08:00:11;;;;;;;27.73;14.20;;;;;;;9.39;32.41;101307.87;2099997;84;34216;-65
2022/03/13 08:03:14;;;;;;;24.25;13.85;;;;;;;9.71;31.83;101303.85;2033621;86;36998;-61
2022/03/13 08:06:15;;;;;;;23.10;12.98;;;;;;;9.94;30.63;101300.92;2036589;87;27728;-65
2022/03/13 08:09:17;;;;;;;25.97;13.43;;;;;;;10.03;31.53;101297.50;2036841;86;29095;-64
2022/03/13 08:12:19;;;;;;;24.23;13.55;;;;;;;10.18;31.35;101297.48;2036801;87;31492;-65
2022/03/13 08:15:21;;;;;;;28.27;13.68;;;;;;;10.46;31.35;101289.92;2036817;87;34129;-69
2022/03/13 08:18:23;;;;;;;19.75;11.93;;;;;;;10.62;30.14;101286.72;2036805;87;30610;-65
2022/03/13 08:21:25;;;;;;;21.75;12.80;;;;;;;10.87;30.75;101283.20;2036670;87;28215;-64
2022/03/13 08:24:28;;;;;;;22.15;12.98;;;;;;;11.24;30.91;101281.90;2036464;87;29541;-62
2022/03/13 08:27:30;;;;;;;20.68;12.28;;;;;;;11.58;30.73;101280.64;2036760;87;30867;-62
2022/03/13 08:30:34;;;;;;;20.52;11.75;;;;;;;11.71;29.41;101278.34;2038673;85;34091;-62
2022/03/13 08:33:36;;;;;;;23.10;11.90;;;;;;;11.81;29.77;101267.67;2052940;85;30531;-61
2022/03/13 08:36:41;;;;;;;18.17;9.83;;;;;;;11.85;29.25;101261.70;2063393;84;28220;-61
2022/03/13 08:39:43;;;;;;;17.60;9.50;;;;;;;11.65;27.74;101262.01;2106548;84;29517;-61
2022/03/13 08:42:45;;;;;;;16.07;10.53;;;;;;;11.46;27.45;101261.84;2079174;84;31002;-63
2022/03/13 08:45:47;;;;;;;17.90;10.13;;;;;;;11.25;27.29;101257.69;2073666;85;34227;-63
2022/03/13 08:48:49;;;;;;;15.48;8.78;;;;;;;11.01;27.03;101262.59;2074196;85;29252;-63
2022/03/13 08:51:51;;;;;;;16.15;9.50;;;;;;;10.76;26.39;101259.45;2058864;86;27732;-69
2022/03/13 08:54:53;;;;;;;13.72;8.85;;;;;;;10.52;26.33;101258.50;2074314;85;29635;-72
2022/03/13 08:57:55;;;;;;;16.87;8.68;;;;;;;10.30;26.38;101253.81;2074383;85;31579;-65
2022/03/13 09:00:57;;;;;;;18.05;8.93;;;;;;;10.22;26.14;101255.89;2058529;86;33829;-62
2022/03/13 09:03:59;;;;;;;15.38;7.90;;;;;;;10.16;25.67;101266.34;2073398;85;30315;-62
2022/03/13 09:07:01;;;;;;;16.35;7.95;;;;;;;10.15;25.85;101253.40;2087843;84;27647;-62
2022/03/13 09:10:07;;;;;;;17.85;9.65;;;;;;;10.16;24.65;101257.83;2070534;86;28856;-64
2022/03/13 09:13:10;;;;;;;15.98;8.43;;;;;;;10.04;24.81;101267.13;2064793;86;31028;-63
2022/03/13 09:16:12;;;;;;;15.72;8.03;;;;;;;10.01;24.61;101264.55;2064781;85;33149;-63
2022/03/13 09:19:14;;;;;;;17.17;8.83;;;;;;;9.97;24.47;101263.36;2100507;84;30507;-64
2022/03/13 09:22:18;;;;;;;18.80;8.83;;;;;;;9.88;24.53;101257.83;2072601;84;27655;-62
2022/03/13 09:25:20;;;;;;;14.00;8.45;;;;;;;9.90;24.60;101260.00;2044956;86;28652;-63
2022/03/13 09:28:22;;;;;;;17.07;8.05;;;;;;;10.00;25.53;101257.91;2064583;85;31431;-63
2022/03/13 09:31:24;;;;;;;12.60;8.93;;;;;;;10.13;24.36;101251.71;2063503;85;33006;-66
2022/03/13 09:34:26;;;;;;;15.95;8.73;;;;;;;10.13;24.65;101255.25;2057909;86;30384;-63
2022/03/13 09:37:29;;;;;;;20.32;9.20;;;;;;;10.09;23.61;101270.13;2058535;86;27689;-62
2022/03/13 09:40:33;;;;;;;14.73;7.95;;;;;;;9.98;24.14;101261.98;2059999;86;29399;-62
2022/03/13 09:43:35;;;;;;;15.40;9.13;;;;;;;9.98;23.59;101258.42;2098245;84;31414;-62
2022/03/13 09:46:38;;;;;;;16.90;9.90;;;;;;;9.95;23.58;101259.41;2071862;84;33054;-62
2022/03/13 09:49:42;;;;;;;17.17;10.23;;;;;;;9.90;23.96;101255.98;2063865;85;29331;-67
2022/03/13 09:52:47;;;;;;;19.17;9.95;;;;;;;9.90;23.30;101264.48;2064771;85;27747;-66
2022/03/13 09:55:49;;;;;;;13.95;9.25;;;;;;;9.86;24.13;101259.67;2062605;86;29549;-63
2022/03/13 09:58:55;;;;;;;16.55;9.18;;;;;;;9.94;23.82;101260.33;2064731;85;31822;-69
2022/03/13 10:01:57;;;;;;;15.70;9.38;;;;;;;9.98;24.10;101258.42;2064581;86;33066;-66
2022/03/13 10:05:07;;;;;;;13.65;8.38;;;;;;;10.03;23.36;101256.48;2070983;85;29449;-62
2022/03/13 10:08:09;;;;;;;19.82;10.58;;;;;;;9.99;22.79;101257.50;2080891;85;27619;-64
2022/03/13 10:11:12;;;;;;;15.28;9.20;;;;;;;10.01;23.88;101248.48;2080436;85;29887;-63
2022/03/13 10:14:14;;;;;;;18.35;9.18;;;;;;;10.06;23.61;101250.14;2080189;85;31035;-66
2022/03/13 10:17:31;;;;;;;14.35;8.75;;;;;;;10.11;23.69;101253.08;2090739;84;34124;-65
2022/03/13 10:20:35;;;;;;;16.00;9.33;;;;;;;10.12;23.40;101250.81;2063405;84;29189;-65
2022/03/13 10:23:37;;;;;;;14.10;9.30;;;;;;;10.19;23.70;101254.16;2052279;86;27716;-64
2022/03/13 10:26:39;;;;;;;14.65;8.93;;;;;;;10.23;23.41;101249.12;2069618;84;29342;-65
2022/03/13 10:29:42;;;;;;;15.85;9.10;;;;;;;10.27;23.61;101244.54;2060640;84;31632;-65
2022/03/13 10:32:46;;;;;;;17.77;9.98;;;;;;;10.37;23.88;101241.98;2074810;85;34524;-67
2022/03/13 10:35:48;;;;;;;16.93;9.65;;;;;;;10.45;24.02;101241.28;2061569;85;30453;-63
2022/03/13 10:38:50;;;;;;;20.32;10.72;;;;;;;10.56;23.63;101242.73;2079265;84;28274;-66
2022/03/13 10:42:02;;;;;;;14.28;8.48;;;;;;;10.59;22.93;101240.81;2063997;86;28847;-63
2022/03/13 10:45:01;;;;;;;13.18;8.20;;;;;;;10.59;23.05;101243.98;2065692;85;31032;-63
2022/03/13 10:48:21;;;;;;;16.50;8.90;;;;;;;10.61;23.03;101232.72;2093456;84;33473;-65
2022/03/13 10:51:40;;;;;;;14.43;8.35;;;;;;;10.57;22.96;101235.97;2057397;86;29938;-67
2022/03/13 10:54:46;;;;;;;16.52;10.98;;;;;;;10.57;22.65;101234.63;2058194;86;27762;-68
2022/03/13 10:58:00;;;;;;;13.65;8.33;;;;;;;10.59;22.83;101235.94;2057902;86;29070;-61
2022/03/13 11:01:11;;;;;;;14.15;8.33;;;;;;;10.62;23.14;101224.64;2058027;86;31221;-63
2022/03/13 11:04:16;;;;;;;14.68;8.28;;;;;;;10.64;22.77;101228.59;2057511;86;34106;-61
2022/03/13 11:07:18;;;;;;;12.33;7.22;;;;;;;10.61;22.84;101221.99;2054262;85;29906;-65
2022/03/13 11:10:20;;;;;;;11.35;6.75;;;;;;;10.65;22.42;101230.34;2052820;86;27756;-62
2022/03/13 11:13:28;;;;;;;14.78;9.25;;;;;;;10.73;22.70;101222.93;2051760;86;29731;-63
2022/03/13 11:16:32;;;;;;;13.78;8.23;;;;;;;10.77;22.78;101223.69;2039234;86;32141;-62
2022/03/13 11:19:36;;;;;;;16.87;9.45;;;;;;;10.77;22.29;101211.62;2002661;88;33637;-62
2022/03/13 11:22:38;;;;;;;12.45;7.35;;;;;;;10.75;22.87;101219.73;2027789;87;30047;-62
2022/03/13 11:25:40;;;;;;;14.18;8.43;;;;;;;10.76;21.84;101217.91;2025737;87;28177;-65
2022/03/13 11:28:44;;;;;;;15.00;8.43;;;;;;;10.75;22.40;101220.18;2020251;86;29548;-68
2022/03/13 11:31:47;;;;;;;14.80;8.30;;;;;;;10.75;21.89;101214.38;2058228;85;31197;-68
2022/03/13 11:35:15;;;;;;;14.13;8.48;;;;;;;10.78;22.45;101210.70;2062894;86;34129;-61
2022/03/13 11:38:19;;;;;;;18.50;8.08;;;;;;;10.82;22.51;101206.09;2060758;86;29455;-63
2022/03/13 11:41:41;;;;;;;14.70;8.67;;;;;;;10.83;21.34;101200.70;2063802;86;28185;-62
2022/03/13 11:44:43;;;;;;;16.25;8.78;;;;;;;10.81;21.74;101207.02;2038593;86;29876;-63
2022/03/13 11:47:45;;;;;;;12.70;7.42;;;;;;;10.79;21.42;101203.92;2091809;85;32297;-64
2022/03/13 11:51:03;;;;;;;12.15;7.90;;;;;;;10.81;22.00;101194.52;2091810;85;34057;-63
2022/03/13 11:54:06;;;;;;;12.43;7.80;;;;;;;10.84;22.10;101193.03;2084043;85;30020;-62
2022/03/13 11:57:19;;;;;;;12.25;5.97;;;;;;;10.93;21.72;101186.46;2082828;85;27728;-61
2022/03/13 12:00:30;;;;;;;12.15;6.33;;;;;;;10.97;20.60;101184.08;2091733;83;28882;-64
2022/03/13 12:03:29;;;;;;;11.80;5.95;;;;;;;10.99;21.18;101192.09;2117887;83;31044;-63
2022/03/13 12:06:43;;;;;;;10.65;6.12;;;;;;;11.01;19.97;101186.17;2091309;83;33018;-62
2022/03/13 12:09:45;;;;;;;12.50;6.45;;;;;;;11.02;19.75;101187.92;2067031;85;30426;-62
2022/03/13 12:13:07;;;;;;;11.88;6.78;;;;;;;11.00;20.37;101181.77;2043174;85;27749;-66
2022/03/13 12:16:13;;;;;;;19.57;9.08;;;;;;;11.01;20.93;101171.42;2085060;85;28604;-66
2022/03/13 12:19:19;;;;;;;14.43;8.68;;;;;;;11.02;20.76;101166.48;2092040;85;31017;-71
2022/03/13 12:22:25;;;;;;;13.83;8.38;;;;;;;11.01;21.26;101164.27;2122338;83;33118;-64
2022/03/13 12:25:26;;;;;;;11.75;7.78;;;;;;;11.07;21.51;101168.53;2131416;83;30672;-66
2022/03/13 12:28:35;;;;;;;11.50;7.83;;;;;;;11.14;21.43;101155.75;2134432;82;27729;-64
2022/03/13 12:31:46;;;;;;;12.90;7.60;;;;;;;11.19;21.24;101162.69;2159881;82;29485;-64
2022/03/13 12:34:48;;;;;;;16.30;8.68;;;;;;;11.20;20.56;101162.23;2099589;83;31147;-64
2022/03/13 12:37:55;;;;;;;13.80;9.15;;;;;;;11.17;20.70;101158.33;2131565;83;33512;-66
2022/03/13 12:40:59;;;;;;;16.25;9.90;;;;;;;11.15;21.02;101162.87;2130345;83;29932;-67
2022/03/13 12:44:05;;;;;;;15.48;9.18;;;;;;;11.13;20.83;101156.23;2131941;83;27585;-69
2022/03/13 12:47:09;;;;;;;18.35;10.90;;;;;;;11.14;20.93;101145.92;2132105;83;28628;-61
2022/03/13 12:50:13;;;;;;;18.02;10.00;;;;;;;11.17;21.04;101151.14;2131400;83;31005;-67
2022/03/13 12:53:24;;;;;;;20.50;11.07;;;;;;;11.19;20.65;101154.64;2132038;83;33800;-61
2022/03/13 12:56:29;;;;;;;18.90;10.72;;;;;;;11.18;20.32;101147.53;2131878;83;30324;-60
2022/03/13 12:59:42;;;;;;;17.95;10.65;;;;;;;11.21;20.59;101146.55;2116212;83;27660;-61
2022/03/13 13:02:44;;;;;;;21.10;11.57;;;;;;;11.22;20.53;101144.28;2094452;85;28707;-64
2022/03/13 13:05:50;;;;;;;18.90;11.73;;;;;;;11.25;20.66;101148.19;2107533;81;32461;-60
2022/03/13 13:08:52;;;;;;;18.45;11.00;;;;;;;11.30;20.78;101148.01;2165074;81;33063;-68
2022/03/13 13:11:54;;;;;;;18.07;10.70;;;;;;;11.31;20.57;101139.89;2138440;83;29687;-60
2022/03/13 13:14:55;;;;;;;22.77;14.10;;;;;;;11.32;20.57;101137.61;2138206;83;27683;-69
2022/03/13 13:17:58;;;;;;;18.27;11.12;;;;;;;11.33;21.03;101133.14;2138393;82;29054;-71
2022/03/13 13:21:10;;;;;;;38.42;22.62;;;;;;;11.36;20.66;101134.33;2137669;83;32456;-70
2022/03/13 13:24:38;;;;;;;21.48;12.45;;;;;;;11.37;20.76;101126.69;2095095;84;32939;-69
2022/03/13 13:27:51;;;;;;;21.87;11.65;;;;;;;11.40;20.39;101127.92;2072704;85;29490;-69
2022/03/13 13:30:55;;;;;;;16.97;10.48;;;;;;;11.43;20.71;101122.44;2047806;85;27819;-70
2022/03/13 13:33:56;;;;;;;21.73;12.68;;;;;;;11.48;20.83;101125.82;2093717;84;29883;-74
2022/03/13 13:37:09;;;;;;;25.75;14.20;;;;;;;11.49;20.95;101128.02;2092894;85;33162;-71
2022/03/13 13:40:12;;;;;;;21.07;11.78;;;;;;;11.50;20.95;101123.92;2073888;85;34174;-68
2022/03/13 13:43:39;;;;;;;26.27;14.20;;;;;;;11.53;20.76;101125.14;2073959;85;30175;-71
2022/03/13 13:46:42;;;;;;;21.10;12.95;;;;;;;11.55;20.57;101131.81;2073642;85;27827;-66
2022/03/13 13:49:44;;;;;;;22.60;13.68;;;;;;;11.53;20.60;101125.14;2082038;85;29433;-63
2022/03/13 13:52:59;;;;;;;27.52;14.98;;;;;;;11.54;20.95;101128.72;2040607;87;31611;-65
2022/03/13 13:56:07;;;;;;;27.32;14.98;;;;;;;11.57;20.45;101133.08;2039782;86;33037;-63
2022/03/13 13:59:32;;;;;;;27.00;15.58;;;;;;;11.59;20.72;101124.02;2039031;86;29590;-66